PWSweather.com
Personal Weather Stations
Station Observations
UPSTATEWEATHER
Silver Leaf, Greer, SC 29650

Silver LeafGreer, SC 29650

Lat: 34.8955792, Lon: -82.2868211

Elevation: 875

Station Type: Davis Vantage Vue

https://www.upstateweather.com

High Low Average
Temperature 91.5°F33.1°C 70.3°F21.3°C 78.4°F25.8°C
Dew Point 76.3°F24.6°C 68.4°F20.2°C 71.9°F22.2°C
Winds 2.3 mph 3.7 kmh Calm Calm Calm NCalm N
Wind Gusts 5.8 mph9.3 kmh -- 1.0 mph1.6 kmh
Humidity 96% 56% 82%
Pressure 30.25 in1024.4 mb 30.08 in1018.6 mb -
Precipitation 0.00 in0.0 mm - -
Hour Temp Dew Point Humidity Winds Wind Gusts Pressure Precip Precip Rate Daily Precip Total
12:00 AM 77.1°F25.1°C 71.2°F21.8°C 82% Calm Calm -- 30.09 in1019.0 mb - 0.00 in0.0 mm 0.00 in0.0 mm
12:15 AM 76.6°F24.8°C 71.0°F21.7°C 83% Calm Calm -- 30.09 in1019.0 mb - 0.00 in0.0 mm 0.00 in0.0 mm
12:30 AM 76.4°F24.7°C 70.9°F21.6°C 83% Calm Calm -- 30.09 in1019.0 mb - 0.00 in0.0 mm 0.00 in0.0 mm
12:45 AM 76.2°F24.6°C 71.0°F21.7°C 84% Calm Calm -- 30.09 in1019.0 mb - 0.00 in0.0 mm 0.00 in0.0 mm
01:00 AM 75.8°F24.3°C 71.0°F21.7°C 85% Calm Calm -- 30.10 in1019.3 mb - 0.00 in0.0 mm 0.00 in0.0 mm
01:15 AM 75.4°F24.1°C 70.9°F21.6°C 86% Calm Calm -- 30.10 in1019.3 mb - 0.00 in0.0 mm 0.00 in0.0 mm
01:30 AM 75.3°F24.1°C 70.8°F21.6°C 86% Calm Calm -- 30.10 in1019.3 mb - 0.00 in0.0 mm 0.00 in0.0 mm
01:45 AM 75.3°F24.1°C 70.8°F21.6°C 86% Calm Calm -- 30.10 in1019.3 mb - 0.00 in0.0 mm 0.00 in0.0 mm
02:00 AM 74.9°F23.8°C 70.8°F21.6°C 87% Calm Calm -- 30.09 in1019.0 mb - 0.00 in0.0 mm 0.00 in0.0 mm
02:15 AM 74.3°F23.5°C 70.2°F21.2°C 87% Calm Calm -- 30.09 in1019.0 mb - 0.00 in0.0 mm 0.00 in0.0 mm
02:30 AM 74.1°F23.4°C 70.3°F21.3°C 88% Calm Calm -- 30.09 in1019.0 mb - 0.00 in0.0 mm 0.00 in0.0 mm
02:45 AM 73.8°F23.2°C 70.0°F21.1°C 88% Calm Calm -- 30.10 in1019.3 mb - 0.00 in0.0 mm 0.00 in0.0 mm
03:00 AM 73.2°F22.9°C 69.8°F21.0°C 89% Calm Calm -- 30.10 in1019.3 mb - 0.00 in0.0 mm 0.00 in0.0 mm
03:15 AM 72.9°F22.7°C 69.8°F21.0°C 90% Calm Calm -- 30.10 in1019.3 mb - 0.00 in0.0 mm 0.00 in0.0 mm
03:30 AM 72.7°F22.6°C 69.9°F21.1°C 91% Calm Calm -- 30.10 in1019.3 mb - 0.00 in0.0 mm 0.00 in0.0 mm
03:45 AM 72.4°F22.4°C 69.6°F20.9°C 91% Calm Calm -- 30.10 in1019.3 mb - 0.00 in0.0 mm 0.00 in0.0 mm
04:00 AM 72.3°F22.4°C 69.5°F20.8°C 91% Calm Calm -- 30.10 in1019.3 mb - 0.00 in0.0 mm 0.00 in0.0 mm
04:15 AM 72.1°F22.3°C 69.3°F20.7°C 91% Calm Calm -- 30.10 in1019.3 mb - 0.00 in0.0 mm 0.00 in0.0 mm
04:30 AM 71.8°F22.1°C 69.3°F20.7°C 92% Calm Calm -- 30.11 in1019.6 mb - 0.00 in0.0 mm 0.00 in0.0 mm
04:45 AM 71.5°F21.9°C 69.0°F20.6°C 92% Calm Calm -- 30.11 in1019.6 mb - 0.00 in0.0 mm 0.00 in0.0 mm
05:00 AM 71.1°F21.7°C 69.0°F20.6°C 93% Calm Calm -- 30.12 in1020.0 mb - 0.00 in0.0 mm 0.00 in0.0 mm
05:15 AM 70.8°F21.6°C 68.7°F20.4°C 93% Calm Calm -- 30.12 in1020.0 mb - 0.00 in0.0 mm 0.00 in0.0 mm
05:30 AM 70.5°F21.4°C 68.4°F20.2°C 93% Calm Calm -- 30.12 in1020.0 mb - 0.00 in0.0 mm 0.00 in0.0 mm
05:45 AM 70.4°F21.3°C 68.6°F20.3°C 94% Calm Calm -- 30.13 in1020.3 mb - 0.00 in0.0 mm 0.00 in0.0 mm
06:00 AM 70.3°F21.3°C 68.5°F20.3°C 94% Calm Calm -- 30.13 in1020.3 mb - 0.00 in0.0 mm 0.00 in0.0 mm
06:15 AM 70.3°F21.3°C 68.5°F20.3°C 94% Calm Calm -- 30.13 in1020.3 mb - 0.00 in0.0 mm 0.00 in0.0 mm
06:30 AM 70.3°F21.3°C 68.5°F20.3°C 94% Calm Calm -- 30.14 in1020.7 mb - 0.00 in0.0 mm 0.00 in0.0 mm
06:45 AM 70.6°F21.4°C 68.8°F20.4°C 94% Calm Calm -- 30.14 in1020.7 mb - 0.00 in0.0 mm 0.00 in0.0 mm
07:00 AM 70.9°F21.6°C 69.1°F20.6°C 94% Calm Calm -- 30.14 in1020.7 mb - 0.00 in0.0 mm 0.00 in0.0 mm
07:15 AM 71.3°F21.8°C 69.5°F20.8°C 94% Calm Calm -- 30.14 in1020.7 mb - 0.00 in0.0 mm 0.00 in0.0 mm
07:30 AM 71.9°F22.2°C 70.0°F21.1°C 94% Calm Calm -- 30.14 in1020.7 mb - 0.00 in0.0 mm 0.00 in0.0 mm
07:45 AM 72.7°F22.6°C 70.6°F21.4°C 93% Calm Calm -- 30.15 in1021.0 mb - 0.00 in0.0 mm 0.00 in0.0 mm
08:00 AM 73.9°F23.3°C 71.5°F21.9°C 92% Calm Calm -- 30.15 in1021.0 mb - 0.00 in0.0 mm 0.00 in0.0 mm
08:15 AM 75.3°F24.1°C 72.5°F22.5°C 91% Calm Calm -- 30.16 in1021.3 mb - 0.00 in0.0 mm 0.00 in0.0 mm
08:30 AM 76.8°F24.9°C 73.0°F22.8°C 88% Calm Calm -- 30.16 in1021.3 mb - 0.00 in0.0 mm 0.00 in0.0 mm
08:45 AM 78.5°F25.8°C 73.6°F23.1°C 85% Calm Calm -- 30.16 in1021.3 mb - 0.00 in0.0 mm 0.00 in0.0 mm
09:00 AM 79.3°F26.3°C 73.0°F22.8°C 81% Calm Calm -- 30.17 in1021.7 mb - 0.00 in0.0 mm 0.00 in0.0 mm
09:15 AM 80.7°F27.1°C 74.0°F23.3°C 80% Calm Calm -- 30.17 in1021.7 mb - 0.00 in0.0 mm 0.00 in0.0 mm
09:30 AM 81.9°F27.7°C 74.0°F23.3°C 77% 1.2 mph N1.9 kmh N 2.3 mph3.7 kmh 30.17 in1021.7 mb - 0.00 in0.0 mm 0.00 in0.0 mm
09:45 AM 82.8°F28.2°C 74.4°F23.6°C 76% Calm Calm -- 30.17 in1021.7 mb - 0.00 in0.0 mm 0.00 in0.0 mm
10:00 AM 83.4°F28.6°C 73.8°F23.2°C 73% 1.2 mph N1.9 kmh N 2.3 mph3.7 kmh 30.17 in1021.7 mb - 0.00 in0.0 mm 0.00 in0.0 mm
10:15 AM 84.5°F29.2°C 74.9°F23.8°C 73% 1.2 mph N1.9 kmh N 2.3 mph3.7 kmh 30.17 in1021.7 mb - 0.00 in0.0 mm 0.00 in0.0 mm
10:30 AM 85.1°F29.5°C 75.1°F23.9°C 72% 1.2 mph N1.9 kmh N 2.3 mph3.7 kmh 30.17 in1021.7 mb - 0.00 in0.0 mm 0.00 in0.0 mm
10:45 AM 85.6°F29.8°C 75.1°F23.9°C 71% 1.2 mph N1.9 kmh N 2.3 mph3.7 kmh 30.18 in1022.0 mb - 0.00 in0.0 mm 0.00 in0.0 mm
11:00 AM 86.3°F30.2°C 75.8°F24.3°C 71% 1.2 mph N1.9 kmh N 2.3 mph3.7 kmh 30.17 in1021.7 mb - 0.00 in0.0 mm 0.00 in0.0 mm
11:15 AM 86.8°F30.4°C 75.4°F24.1°C 69% 1.2 mph N1.9 kmh N 3.5 mph5.6 kmh 30.17 in1021.7 mb - 0.00 in0.0 mm 0.00 in0.0 mm
11:30 AM 86.9°F30.5°C 74.6°F23.7°C 67% 1.2 mph N1.9 kmh N 3.5 mph5.6 kmh 30.17 in1021.7 mb - 0.00 in0.0 mm 0.00 in0.0 mm
11:45 AM 87.2°F30.7°C 75.3°F24.1°C 68% 1.2 mph N1.9 kmh N 2.3 mph3.7 kmh 30.17 in1021.7 mb - 0.00 in0.0 mm 0.00 in0.0 mm
12:00 PM 87.5°F30.8°C 75.6°F24.2°C 68% Calm Calm 1.2 mph1.9 kmh 30.17 in1021.7 mb - 0.00 in0.0 mm 0.00 in0.0 mm
12:15 PM 88.2°F31.2°C 76.3°F24.6°C 68% Calm Calm 1.2 mph1.9 kmh 30.16 in1021.3 mb - 0.00 in0.0 mm 0.00 in0.0 mm
12:30 PM 88.7°F31.5°C 75.9°F24.4°C 66% Calm Calm 1.2 mph1.9 kmh 30.16 in1021.3 mb - 0.00 in0.0 mm 0.00 in0.0 mm
12:45 PM 89.9°F32.2°C 75.6°F24.2°C 63% Calm Calm 1.2 mph1.9 kmh 30.16 in1021.3 mb - 0.00 in0.0 mm 0.00 in0.0 mm
01:00 PM 89.7°F32.1°C 74.9°F23.8°C 62% Calm Calm -- 30.15 in1021.0 mb - 0.00 in0.0 mm 0.00 in0.0 mm
01:15 PM 90.7°F32.6°C 74.4°F23.6°C 59% Calm Calm 1.2 mph1.9 kmh 30.14 in1020.7 mb - 0.00 in0.0 mm 0.00 in0.0 mm
01:30 PM 90.6°F32.6°C 73.8°F23.2°C 58% 1.2 mph N1.9 kmh N -- 30.13 in1020.3 mb - 0.00 in0.0 mm 0.00 in0.0 mm
01:45 PM 90.4°F32.4°C 74.1°F23.4°C 59% Calm Calm -- 30.12 in1020.0 mb - 0.00 in0.0 mm 0.00 in0.0 mm
02:00 PM 90.3°F32.4°C 73.5°F23.1°C 58% Calm Calm 1.2 mph1.9 kmh 30.11 in1019.6 mb - 0.00 in0.0 mm 0.00 in0.0 mm
02:15 PM 90.2°F32.3°C 72.4°F22.4°C 56% 1.2 mph N1.9 kmh N 2.3 mph3.7 kmh 30.10 in1019.3 mb - 0.00 in0.0 mm 0.00 in0.0 mm
02:30 PM 91.5°F33.1°C 73.6°F23.1°C 56% 2.3 mph N3.7 kmh N 2.3 mph3.7 kmh 30.09 in1019.0 mb - 0.00 in0.0 mm 0.00 in0.0 mm
02:45 PM 91.4°F33.0°C 74.5°F23.6°C 58% Calm Calm -- 30.09 in1019.0 mb - 0.00 in0.0 mm 0.00 in0.0 mm
03:00 PM 91.1°F32.8°C 73.7°F23.2°C 57% 1.2 mph N1.9 kmh N 1.2 mph1.9 kmh 30.09 in1019.0 mb - 0.00 in0.0 mm 0.00 in0.0 mm
03:15 PM 91.0°F32.8°C 74.2°F23.4°C 58% 1.2 mph N1.9 kmh N 1.2 mph1.9 kmh 30.08 in1018.6 mb - 0.00 in0.0 mm 0.00 in0.0 mm
03:30 PM 90.5°F32.5°C 73.7°F23.2°C 58% Calm Calm -- 30.08 in1018.6 mb - 0.00 in0.0 mm 0.00 in0.0 mm
03:45 PM 90.8°F32.7°C 73.5°F23.1°C 57% 1.2 mph N1.9 kmh N 2.3 mph3.7 kmh 30.08 in1018.6 mb - 0.00 in0.0 mm 0.00 in0.0 mm
04:00 PM 90.3°F32.4°C 73.0°F22.8°C 57% Calm Calm -- 30.09 in1019.0 mb - 0.00 in0.0 mm 0.00 in0.0 mm
04:15 PM 89.9°F32.2°C 74.1°F23.4°C 60% 1.2 mph N1.9 kmh N 1.2 mph1.9 kmh 30.09 in1019.0 mb - 0.00 in0.0 mm 0.00 in0.0 mm
04:30 PM 87.9°F31.1°C 72.8°F22.7°C 61% 2.3 mph N3.7 kmh N 5.8 mph9.3 kmh 30.11 in1019.6 mb - 0.00 in0.0 mm 0.00 in0.0 mm
04:45 PM 83.2°F28.4°C 71.1°F21.7°C 67% 2.3 mph N3.7 kmh N 3.5 mph5.6 kmh 30.12 in1020.0 mb - 0.00 in0.0 mm 0.00 in0.0 mm
05:00 PM 80.9°F27.2°C 71.4°F21.9°C 73% 1.2 mph N1.9 kmh N 2.3 mph3.7 kmh 30.13 in1020.3 mb - 0.00 in0.0 mm 0.00 in0.0 mm
05:15 PM 78.5°F25.8°C 72.6°F22.6°C 82% Calm Calm 1.2 mph1.9 kmh 30.14 in1020.7 mb - 0.00 in0.0 mm 0.00 in0.0 mm
05:30 PM 77.5°F25.3°C 72.3°F22.4°C 84% Calm Calm 1.2 mph1.9 kmh 30.15 in1021.0 mb - 0.00 in0.0 mm 0.00 in0.0 mm
05:45 PM 77.1°F25.1°C 71.9°F22.2°C 84% Calm Calm 1.2 mph1.9 kmh 30.15 in1021.0 mb - 0.00 in0.0 mm 0.00 in0.0 mm
06:00 PM 77.0°F25.0°C 72.1°F22.3°C 85% Calm Calm -- 30.18 in1022.0 mb - 0.00 in0.0 mm 0.00 in0.0 mm
06:15 PM 76.7°F24.8°C 72.2°F22.3°C 86% Calm Calm -- 30.19 in1022.4 mb - 0.00 in0.0 mm 0.00 in0.0 mm
06:30 PM 76.3°F24.6°C 71.8°F22.1°C 86% Calm Calm -- 30.20 in1022.7 mb - 0.00 in0.0 mm 0.00 in0.0 mm
06:45 PM 76.4°F24.7°C 72.2°F22.3°C 87% Calm Calm -- 30.21 in1023.0 mb - 0.00 in0.0 mm 0.00 in0.0 mm
07:00 PM 76.2°F24.6°C 72.4°F22.4°C 88% Calm Calm -- 30.22 in1023.4 mb - 0.00 in0.0 mm 0.00 in0.0 mm
07:15 PM 76.0°F24.4°C 72.2°F22.3°C 88% Calm Calm -- 30.23 in1023.7 mb - 0.00 in0.0 mm 0.00 in0.0 mm
07:30 PM 75.2°F24.0°C 72.4°F22.4°C 91% Calm Calm -- 30.23 in1023.7 mb - 0.00 in0.0 mm 0.00 in0.0 mm
07:45 PM 74.5°F23.6°C 72.4°F22.4°C 93% Calm Calm -- 30.23 in1023.7 mb - 0.00 in0.0 mm 0.00 in0.0 mm
08:00 PM 73.9°F23.3°C 71.7°F22.1°C 93% Calm Calm -- 30.23 in1023.7 mb - 0.00 in0.0 mm 0.00 in0.0 mm
08:15 PM 73.3°F22.9°C 71.5°F21.9°C 94% Calm Calm -- 30.23 in1023.7 mb - 0.00 in0.0 mm 0.00 in0.0 mm
08:30 PM 73.1°F22.8°C 71.6°F22.0°C 95% Calm Calm -- 30.23 in1023.7 mb - 0.00 in0.0 mm 0.00 in0.0 mm
08:45 PM 72.9°F22.7°C 71.4°F21.9°C 95% Calm Calm -- 30.23 in1023.7 mb - 0.00 in0.0 mm 0.00 in0.0 mm
09:00 PM 72.8°F22.7°C 71.3°F21.8°C 95% Calm Calm -- 30.23 in1023.7 mb - 0.00 in0.0 mm 0.00 in0.0 mm
09:15 PM 72.7°F22.6°C 71.5°F21.9°C 96% Calm Calm -- 30.23 in1023.7 mb - 0.00 in0.0 mm 0.00 in0.0 mm
09:30 PM 72.6°F22.6°C 71.4°F21.9°C 96% Calm Calm -- 30.24 in1024.0 mb - 0.00 in0.0 mm 0.00 in0.0 mm
09:45 PM 72.5°F22.5°C 71.3°F21.8°C 96% Calm Calm -- 30.24 in1024.0 mb - 0.00 in0.0 mm 0.00 in0.0 mm
10:00 PM 72.4°F22.4°C 71.2°F21.8°C 96% Calm Calm -- 30.25 in1024.4 mb - 0.00 in0.0 mm 0.00 in0.0 mm
10:15 PM 72.3°F22.4°C 71.1°F21.7°C 96% Calm Calm -- 30.25 in1024.4 mb - 0.00 in0.0 mm 0.00 in0.0 mm
10:30 PM 72.3°F22.4°C 71.1°F21.7°C 96% Calm Calm -- 30.25 in1024.4 mb - 0.00 in0.0 mm 0.00 in0.0 mm
10:45 PM 72.3°F22.4°C 71.1°F21.7°C 96% Calm Calm -- 30.25 in1024.4 mb - 0.00 in0.0 mm 0.00 in0.0 mm
11:00 PM 72.2°F22.3°C 71.0°F21.7°C 96% Calm Calm -- 30.25 in1024.4 mb - 0.00 in0.0 mm 0.00 in0.0 mm
11:15 PM 72.4°F22.4°C 71.2°F21.8°C 96% Calm Calm -- 30.24 in1024.0 mb - 0.00 in0.0 mm 0.00 in0.0 mm
11:30 PM 72.4°F22.4°C 71.2°F21.8°C 96% Calm Calm -- 30.24 in1024.0 mb - 0.00 in0.0 mm 0.00 in0.0 mm
11:45 PM 72.4°F22.4°C 71.2°F21.8°C 96% Calm Calm -- 30.24 in1024.0 mb - 0.00 in0.0 mm 0.00 in0.0 mm